sensor_id;sensor_type;location;lat;lon;timestamp;P1;durP1;ratioP1;P2;durP2;ratioP2
19519;SDS011;9904;52.246;20.898;2023-04-30T00:01:20;29.20;;;17.37;;
19519;SDS011;9904;52.246;20.898;2023-04-30T00:03:47;32.00;;;16.97;;
19519;SDS011;9904;52.246;20.898;2023-04-30T00:06:14;34.97;;;18.50;;
19519;SDS011;9904;52.246;20.898;2023-04-30T00:08:41;32.77;;;17.67;;
19519;SDS011;9904;52.246;20.898;2023-04-30T00:11:07;34.70;;;18.33;;
19519;SDS011;9904;52.246;20.898;2023-04-30T00:13:34;30.07;;;18.30;;
19519;SDS011;9904;52.246;20.898;2023-04-30T00:16:00;32.33;;;19.00;;
19519;SDS011;9904;52.246;20.898;2023-04-30T00:18:27;32.67;;;19.53;;
19519;SDS011;9904;52.246;20.898;2023-04-30T00:20:53;30.30;;;19.47;;
19519;SDS011;9904;52.246;20.898;2023-04-30T00:23:20;30.13;;;17.93;;
19519;SDS011;9904;52.246;20.898;2023-04-30T00:25:46;33.63;;;19.90;;
19519;SDS011;9904;52.246;20.898;2023-04-30T00:28:13;31.77;;;19.90;;
19519;SDS011;9904;52.246;20.898;2023-04-30T00:30:39;36.10;;;19.37;;
19519;SDS011;9904;52.246;20.898;2023-04-30T00:33:06;32.90;;;19.43;;
19519;SDS011;9904;52.246;20.898;2023-04-30T00:35:32;36.00;;;20.20;;
19519;SDS011;9904;52.246;20.898;2023-04-30T00:37:59;33.77;;;19.30;;
19519;SDS011;9904;52.246;20.898;2023-04-30T00:40:25;33.40;;;21.07;;
19519;SDS011;9904;52.246;20.898;2023-04-30T00:42:52;34.90;;;21.73;;
19519;SDS011;9904;52.246;20.898;2023-04-30T00:45:21;40.73;;;22.63;;
19519;SDS011;9904;52.246;20.898;2023-04-30T00:47:48;33.43;;;21.60;;
19519;SDS011;9904;52.246;20.898;2023-04-30T00:50:15;35.60;;;21.13;;
19519;SDS011;9904;52.246;20.898;2023-04-30T00:52:42;37.37;;;22.20;;
19519;SDS011;9904;52.246;20.898;2023-04-30T00:55:10;37.67;;;23.10;;
19519;SDS011;9904;52.246;20.898;2023-04-30T00:57:37;36.90;;;21.40;;
19519;SDS011;9904;52.246;20.898;2023-04-30T01:00:04;39.87;;;22.57;;
19519;SDS011;9904;52.246;20.898;2023-04-30T01:02:31;38.77;;;23.77;;
19519;SDS011;9904;52.246;20.898;2023-04-30T01:04:58;39.57;;;23.43;;
19519;SDS011;9904;52.246;20.898;2023-04-30T01:07:24;37.50;;;22.37;;
19519;SDS011;9904;52.246;20.898;2023-04-30T01:09:53;38.63;;;21.90;;
19519;SDS011;9904;52.246;20.898;2023-04-30T01:12:25;40.63;;;21.97;;
19519;SDS011;9904;52.246;20.898;2023-04-30T01:15:17;37.07;;;23.13;;
19519;SDS011;9904;52.246;20.898;2023-04-30T01:17:54;37.50;;;21.83;;
19519;SDS011;9904;52.246;20.898;2023-04-30T01:20:42;36.20;;;22.37;;
19519;SDS011;9904;52.246;20.898;2023-04-30T01:28:51;39.17;;;23.03;;
19519;SDS011;9904;52.246;20.898;2023-04-30T01:31:18;34.43;;;21.10;;
19519;SDS011;9904;52.246;20.898;2023-04-30T01:33:45;39.77;;;24.00;;
19519;SDS011;9904;52.246;20.898;2023-04-30T01:39:14;37.57;;;22.00;;
19519;SDS011;9904;52.246;20.898;2023-04-30T01:42:10;31.30;;;19.87;;
19519;SDS011;9904;52.246;20.898;2023-04-30T01:45:10;36.13;;;21.50;;
19519;SDS011;9904;52.246;20.898;2023-04-30T01:47:51;38.40;;;21.30;;
19519;SDS011;9904;52.246;20.898;2023-04-30T01:50:33;39.47;;;22.27;;
19519;SDS011;9904;52.246;20.898;2023-04-30T01:53:12;34.30;;;21.43;;
19519;SDS011;9904;52.246;20.898;2023-04-30T01:55:42;35.93;;;21.03;;
19519;SDS011;9904;52.246;20.898;2023-04-30T01:58:14;35.20;;;21.23;;
19519;SDS011;9904;52.246;20.898;2023-04-30T02:00:41;33.33;;;21.37;;
19519;SDS011;9904;52.246;20.898;2023-04-30T02:03:08;34.70;;;21.10;;
19519;SDS011;9904;52.246;20.898;2023-04-30T02:05:35;37.27;;;20.47;;
19519;SDS011;9904;52.246;20.898;2023-04-30T02:08:01;30.37;;;19.57;;
19519;SDS011;9904;52.246;20.898;2023-04-30T02:10:28;33.67;;;20.20;;
19519;SDS011;9904;52.246;20.898;2023-04-30T02:12:55;35.00;;;20.13;;
19519;SDS011;9904;52.246;20.898;2023-04-30T02:15:22;36.17;;;20.43;;
19519;SDS011;9904;52.246;20.898;2023-04-30T02:17:49;33.07;;;19.53;;
19519;SDS011;9904;52.246;20.898;2023-04-30T02:20:15;32.90;;;18.77;;
19519;SDS011;9904;52.246;20.898;2023-04-30T02:22:42;29.43;;;19.20;;
19519;SDS011;9904;52.246;20.898;2023-04-30T02:25:08;35.87;;;19.57;;
19519;SDS011;9904;52.246;20.898;2023-04-30T02:27:37;30.07;;;17.90;;
19519;SDS011;9904;52.246;20.898;2023-04-30T02:30:04;33.03;;;17.93;;
19519;SDS011;9904;52.246;20.898;2023-04-30T02:32:31;27.63;;;17.87;;
19519;SDS011;9904;52.246;20.898;2023-04-30T02:34:58;27.60;;;16.43;;
19519;SDS011;9904;52.246;20.898;2023-04-30T02:37:25;29.70;;;16.57;;
19519;SDS011;9904;52.246;20.898;2023-04-30T02:39:51;27.83;;;15.97;;
19519;SDS011;9904;52.246;20.898;2023-04-30T02:42:18;26.47;;;16.07;;
19519;SDS011;9904;52.246;20.898;2023-04-30T02:44:45;26.40;;;16.57;;
19519;SDS011;9904;52.246;20.898;2023-04-30T02:47:12;25.03;;;15.03;;
19519;SDS011;9904;52.246;20.898;2023-04-30T02:49:38;27.73;;;16.30;;
19519;SDS011;9904;52.246;20.898;2023-04-30T02:52:05;26.97;;;16.07;;
19519;SDS011;9904;52.246;20.898;2023-04-30T02:54:34;26.37;;;17.07;;
19519;SDS011;9904;52.246;20.898;2023-04-30T02:57:01;24.30;;;15.50;;
19519;SDS011;9904;52.246;20.898;2023-04-30T02:59:28;25.87;;;16.03;;
19519;SDS011;9904;52.246;20.898;2023-04-30T03:01:55;26.33;;;16.33;;
19519;SDS011;9904;52.246;20.898;2023-04-30T03:04:21;25.10;;;16.80;;
19519;SDS011;9904;52.246;20.898;2023-04-30T03:06:48;26.30;;;16.17;;
19519;SDS011;9904;52.246;20.898;2023-04-30T03:09:15;27.50;;;16.20;;
19519;SDS011;9904;52.246;20.898;2023-04-30T03:11:41;23.43;;;15.70;;
19519;SDS011;9904;52.246;20.898;2023-04-30T03:14:08;27.30;;;16.93;;
19519;SDS011;9904;52.246;20.898;2023-04-30T03:16:34;26.77;;;16.17;;
19519;SDS011;9904;52.246;20.898;2023-04-30T03:19:01;27.83;;;16.33;;
19519;SDS011;9904;52.246;20.898;2023-04-30T03:21:28;27.30;;;15.77;;
19519;SDS011;9904;52.246;20.898;2023-04-30T03:23:54;22.53;;;13.90;;
19519;SDS011;9904;52.246;20.898;2023-04-30T03:26:21;26.43;;;14.90;;
19519;SDS011;9904;52.246;20.898;2023-04-30T03:28:47;22.07;;;14.40;;
19519;SDS011;9904;52.246;20.898;2023-04-30T03:31:14;20.73;;;13.60;;
19519;SDS011;9904;52.246;20.898;2023-04-30T03:33:41;22.03;;;14.27;;
19519;SDS011;9904;52.246;20.898;2023-04-30T03:36:07;23.43;;;15.07;;
19519;SDS011;9904;52.246;20.898;2023-04-30T03:38:34;23.73;;;13.80;;
19519;SDS011;9904;52.246;20.898;2023-04-30T03:41:00;21.10;;;13.70;;
19519;SDS011;9904;52.246;20.898;2023-04-30T03:43:27;29.13;;;14.10;;
19519;SDS011;9904;52.246;20.898;2023-04-30T03:45:53;22.73;;;13.97;;
19519;SDS011;9904;52.246;20.898;2023-04-30T03:48:20;23.73;;;13.57;;
19519;SDS011;9904;52.246;20.898;2023-04-30T03:50:46;27.10;;;12.50;;
19519;SDS011;9904;52.246;20.898;2023-04-30T03:53:13;22.77;;;12.47;;
19519;SDS011;9904;52.246;20.898;2023-04-30T03:55:40;24.87;;;13.13;;
19519;SDS011;9904;52.246;20.898;2023-04-30T03:58:07;20.33;;;11.47;;
19519;SDS011;9904;52.246;20.898;2023-04-30T04:00:33;13.30;;;8.00;;
19519;SDS011;9904;52.246;20.898;2023-04-30T04:03:00;14.10;;;7.63;;
19519;SDS011;9904;52.246;20.898;2023-04-30T04:05:26;14.77;;;7.63;;
19519;SDS011;9904;52.246;20.898;2023-04-30T04:07:54;11.90;;;6.63;;
19519;SDS011;9904;52.246;20.898;2023-04-30T04:10:21;15.80;;;7.43;;
19519;SDS011;9904;52.246;20.898;2023-04-30T04:12:47;16.17;;;7.77;;
19519;SDS011;9904;52.246;20.898;2023-04-30T04:15:14;13.13;;;7.43;;
19519;SDS011;9904;52.246;20.898;2023-04-30T04:17:40;15.43;;;7.10;;
19519;SDS011;9904;52.246;20.898;2023-04-30T04:20:07;17.93;;;7.83;;
19519;SDS011;9904;52.246;20.898;2023-04-30T04:22:36;16.70;;;8.57;;
19519;SDS011;9904;52.246;20.898;2023-04-30T04:25:03;16.37;;;8.90;;
19519;SDS011;9904;52.246;20.898;2023-04-30T04:27:29;18.67;;;9.60;;
19519;SDS011;9904;52.246;20.898;2023-04-30T04:29:56;19.73;;;8.90;;
19519;SDS011;9904;52.246;20.898;2023-04-30T04:32:22;13.60;;;8.10;;
19519;SDS011;9904;52.246;20.898;2023-04-30T04:34:49;14.87;;;8.27;;
19519;SDS011;9904;52.246;20.898;2023-04-30T04:37:16;15.83;;;8.13;;
19519;SDS011;9904;52.246;20.898;2023-04-30T04:39:43;13.63;;;8.07;;
19519;SDS011;9904;52.246;20.898;2023-04-30T04:42:10;17.93;;;8.40;;
19519;SDS011;9904;52.246;20.898;2023-04-30T04:44:37;14.83;;;8.00;;
19519;SDS011;9904;52.246;20.898;2023-04-30T04:47:04;13.07;;;7.50;;
19519;SDS011;9904;52.246;20.898;2023-04-30T04:49:31;16.60;;;8.63;;
19519;SDS011;9904;52.246;20.898;2023-04-30T04:51:58;15.23;;;8.17;;
19519;SDS011;9904;52.246;20.898;2023-04-30T04:54:24;16.13;;;7.70;;
19519;SDS011;9904;52.246;20.898;2023-04-30T04:56:51;14.53;;;8.17;;
19519;SDS011;9904;52.246;20.898;2023-04-30T04:59:17;17.07;;;9.10;;
19519;SDS011;9904;52.246;20.898;2023-04-30T05:01:44;14.70;;;8.23;;
19519;SDS011;9904;52.246;20.898;2023-04-30T05:04:11;14.50;;;8.53;;
19519;SDS011;9904;52.246;20.898;2023-04-30T05:06:39;16.27;;;8.50;;
19519;SDS011;9904;52.246;20.898;2023-04-30T05:09:06;15.00;;;8.63;;
19519;SDS011;9904;52.246;20.898;2023-04-30T05:11:34;20.07;;;9.50;;
19519;SDS011;9904;52.246;20.898;2023-04-30T05:14:01;18.50;;;9.03;;
19519;SDS011;9904;52.246;20.898;2023-04-30T05:16:28;17.23;;;9.33;;
19519;SDS011;9904;52.246;20.898;2023-04-30T05:18:55;20.50;;;9.43;;
19519;SDS011;9904;52.246;20.898;2023-04-30T05:21:22;25.00;;;9.70;;
19519;SDS011;9904;52.246;20.898;2023-04-30T05:23:48;16.20;;;10.20;;
19519;SDS011;9904;52.246;20.898;2023-04-30T05:26:15;20.63;;;9.57;;
19519;SDS011;9904;52.246;20.898;2023-04-30T05:28:41;16.37;;;9.33;;
19519;SDS011;9904;52.246;20.898;2023-04-30T05:31:08;21.10;;;9.83;;
19519;SDS011;9904;52.246;20.898;2023-04-30T05:33:34;18.90;;;9.53;;
19519;SDS011;9904;52.246;20.898;2023-04-30T05:36:02;17.17;;;10.03;;
19519;SDS011;9904;52.246;20.898;2023-04-30T05:38:29;17.67;;;9.77;;
19519;SDS011;9904;52.246;20.898;2023-04-30T05:40:55;18.70;;;10.60;;
19519;SDS011;9904;52.246;20.898;2023-04-30T05:43:22;19.30;;;10.20;;
19519;SDS011;9904;52.246;20.898;2023-04-30T05:45:48;17.23;;;10.33;;
19519;SDS011;9904;52.246;20.898;2023-04-30T05:48:15;17.90;;;10.47;;
19519;SDS011;9904;52.246;20.898;2023-04-30T05:50:42;20.13;;;11.33;;
19519;SDS011;9904;52.246;20.898;2023-04-30T05:53:08;20.57;;;10.57;;
19519;SDS011;9904;52.246;20.898;2023-04-30T05:55:35;25.90;;;11.93;;
19519;SDS011;9904;52.246;20.898;2023-04-30T05:58:02;20.07;;;11.70;;
19519;SDS011;9904;52.246;20.898;2023-04-30T06:00:28;23.97;;;12.20;;
19519;SDS011;9904;52.246;20.898;2023-04-30T06:02:55;23.93;;;12.47;;
19519;SDS011;9904;52.246;20.898;2023-04-30T06:05:21;24.13;;;12.77;;
19519;SDS011;9904;52.246;20.898;2023-04-30T06:07:48;21.67;;;11.63;;
19519;SDS011;9904;52.246;20.898;2023-04-30T06:10:15;22.13;;;12.47;;
19519;SDS011;9904;52.246;20.898;2023-04-30T06:12:41;21.50;;;12.23;;
19519;SDS011;9904;52.246;20.898;2023-04-30T06:15:08;22.43;;;12.03;;
19519;SDS011;9904;52.246;20.898;2023-04-30T06:17:35;21.00;;;11.67;;
19519;SDS011;9904;52.246;20.898;2023-04-30T06:20:02;25.60;;;13.13;;
19519;SDS011;9904;52.246;20.898;2023-04-30T06:22:32;23.00;;;13.63;;
19519;SDS011;9904;52.246;20.898;2023-04-30T06:24:59;22.93;;;13.53;;
19519;SDS011;9904;52.246;20.898;2023-04-30T06:27:26;24.57;;;13.83;;
19519;SDS011;9904;52.246;20.898;2023-04-30T06:29:57;25.53;;;13.47;;
19519;SDS011;9904;52.246;20.898;2023-04-30T06:32:26;22.87;;;13.03;;
19519;SDS011;9904;52.246;20.898;2023-04-30T06:34:53;22.97;;;13.50;;
19519;SDS011;9904;52.246;20.898;2023-04-30T06:37:20;23.47;;;13.10;;
19519;SDS011;9904;52.246;20.898;2023-04-30T06:39:47;19.23;;;10.50;;
19519;SDS011;9904;52.246;20.898;2023-04-30T06:42:14;20.53;;;9.60;;
19519;SDS011;9904;52.246;20.898;2023-04-30T06:44:40;14.30;;;7.50;;
19519;SDS011;9904;52.246;20.898;2023-04-30T06:47:07;14.20;;;7.10;;
19519;SDS011;9904;52.246;20.898;2023-04-30T06:49:33;16.17;;;7.10;;
19519;SDS011;9904;52.246;20.898;2023-04-30T06:52:00;11.50;;;5.18;;
19519;SDS011;9904;52.246;20.898;2023-04-30T06:54:27;9.47;;;4.70;;
19519;SDS011;9904;52.246;20.898;2023-04-30T06:56:53;11.90;;;4.13;;
19519;SDS011;9904;52.246;20.898;2023-04-30T06:59:20;7.73;;;4.13;;
19519;SDS011;9904;52.246;20.898;2023-04-30T07:01:46;15.00;;;4.90;;
19519;SDS011;9904;52.246;20.898;2023-04-30T07:04:13;9.87;;;4.60;;
19519;SDS011;9904;52.246;20.898;2023-04-30T07:06:40;9.57;;;4.57;;
19519;SDS011;9904;52.246;20.898;2023-04-30T07:09:06;14.97;;;4.27;;
19519;SDS011;9904;52.246;20.898;2023-04-30T07:11:34;11.43;;;4.47;;
19519;SDS011;9904;52.246;20.898;2023-04-30T07:14:00;9.70;;;3.93;;
19519;SDS011;9904;52.246;20.898;2023-04-30T07:16:27;9.50;;;3.43;;
19519;SDS011;9904;52.246;20.898;2023-04-30T07:18:53;15.50;;;3.40;;
19519;SDS011;9904;52.246;20.898;2023-04-30T07:21:20;9.57;;;2.93;;
19519;SDS011;9904;52.246;20.898;2023-04-30T07:23:47;7.75;;;3.15;;
19519;SDS011;9904;52.246;20.898;2023-04-30T07:26:16;9.03;;;3.30;;
19519;SDS011;9904;52.246;20.898;2023-04-30T07:28:45;7.73;;;3.13;;
19519;SDS011;9904;52.246;20.898;2023-04-30T07:31:13;7.07;;;3.13;;
19519;SDS011;9904;52.246;20.898;2023-04-30T07:33:41;10.83;;;3.57;;
19519;SDS011;9904;52.246;20.898;2023-04-30T07:36:08;11.57;;;3.77;;
19519;SDS011;9904;52.246;20.898;2023-04-30T07:38:36;9.40;;;3.87;;
19519;SDS011;9904;52.246;20.898;2023-04-30T07:41:03;8.50;;;3.43;;
19519;SDS011;9904;52.246;20.898;2023-04-30T07:43:29;8.50;;;3.37;;
19519;SDS011;9904;52.246;20.898;2023-04-30T07:45:57;8.07;;;3.23;;
19519;SDS011;9904;52.246;20.898;2023-04-30T07:48:24;8.67;;;3.23;;
19519;SDS011;9904;52.246;20.898;2023-04-30T07:50:51;10.03;;;2.70;;
19519;SDS011;9904;52.246;20.898;2023-04-30T07:53:18;9.77;;;3.57;;
19519;SDS011;9904;52.246;20.898;2023-04-30T07:55:45;7.97;;;3.10;;
19519;SDS011;9904;52.246;20.898;2023-04-30T07:58:11;11.93;;;3.57;;
19519;SDS011;9904;52.246;20.898;2023-04-30T08:00:38;9.03;;;3.90;;
19519;SDS011;9904;52.246;20.898;2023-04-30T08:03:05;8.13;;;3.67;;
19519;SDS011;9904;52.246;20.898;2023-04-30T08:05:32;11.27;;;3.57;;
19519;SDS011;9904;52.246;20.898;2023-04-30T08:07:58;8.80;;;3.40;;
19519;SDS011;9904;52.246;20.898;2023-04-30T08:10:25;11.23;;;3.23;;
19519;SDS011;9904;52.246;20.898;2023-04-30T08:12:52;11.20;;;3.40;;
19519;SDS011;9904;52.246;20.898;2023-04-30T08:15:19;8.13;;;2.70;;
19519;SDS011;9904;52.246;20.898;2023-04-30T08:17:48;9.43;;;3.07;;
19519;SDS011;9904;52.246;20.898;2023-04-30T08:20:16;12.37;;;4.13;;
19519;SDS011;9904;52.246;20.898;2023-04-30T08:22:43;9.27;;;3.10;;
19519;SDS011;9904;52.246;20.898;2023-04-30T08:25:10;11.23;;;3.03;;
19519;SDS011;9904;52.246;20.898;2023-04-30T08:27:37;9.33;;;2.97;;
19519;SDS011;9904;52.246;20.898;2023-04-30T08:30:05;8.23;;;3.23;;
19519;SDS011;9904;52.246;20.898;2023-04-30T08:32:34;5.73;;;2.77;;
19519;SDS011;9904;52.246;20.898;2023-04-30T08:35:02;9.63;;;2.77;;
19519;SDS011;9904;52.246;20.898;2023-04-30T08:37:32;11.30;;;3.03;;
19519;SDS011;9904;52.246;20.898;2023-04-30T08:39:59;4.50;;;2.33;;
19519;SDS011;9904;52.246;20.898;2023-04-30T08:42:32;6.63;;;2.27;;
19519;SDS011;9904;52.246;20.898;2023-04-30T08:45:02;5.97;;;2.57;;
19519;SDS011;9904;52.246;20.898;2023-04-30T08:47:29;7.63;;;2.33;;
19519;SDS011;9904;52.246;20.898;2023-04-30T08:49:56;15.10;;;2.60;;
19519;SDS011;9904;52.246;20.898;2023-04-30T08:52:22;6.60;;;2.13;;
19519;SDS011;9904;52.246;20.898;2023-04-30T08:54:50;7.60;;;1.97;;
19519;SDS011;9904;52.246;20.898;2023-04-30T08:57:19;7.37;;;2.47;;
19519;SDS011;9904;52.246;20.898;2023-04-30T08:59:46;4.83;;;2.30;;
19519;SDS011;9904;52.246;20.898;2023-04-30T09:02:12;6.03;;;2.50;;
19519;SDS011;9904;52.246;20.898;2023-04-30T09:04:39;6.20;;;2.17;;
19519;SDS011;9904;52.246;20.898;2023-04-30T09:07:06;6.07;;;2.13;;
19519;SDS011;9904;52.246;20.898;2023-04-30T09:09:37;10.63;;;2.50;;
19519;SDS011;9904;52.246;20.898;2023-04-30T09:14:59;6.50;;;2.53;;
19519;SDS011;9904;52.246;20.898;2023-04-30T09:17:29;4.30;;;2.23;;
19519;SDS011;9904;52.246;20.898;2023-04-30T09:20:05;6.70;;;1.90;;
19519;SDS011;9904;52.246;20.898;2023-04-30T09:22:34;5.50;;;2.00;;
19519;SDS011;9904;52.246;20.898;2023-04-30T09:25:01;3.50;;;1.83;;
19519;SDS011;9904;52.246;20.898;2023-04-30T09:27:28;9.68;;;2.30;;
19519;SDS011;9904;52.246;20.898;2023-04-30T09:29:55;4.97;;;1.80;;
19519;SDS011;9904;52.246;20.898;2023-04-30T09:32:22;7.17;;;1.90;;
19519;SDS011;9904;52.246;20.898;2023-04-30T09:34:48;6.20;;;1.87;;
19519;SDS011;9904;52.246;20.898;2023-04-30T09:37:15;5.33;;;1.77;;
19519;SDS011;9904;52.246;20.898;2023-04-30T09:39:48;8.73;;;2.10;;
19519;SDS011;9904;52.246;20.898;2023-04-30T09:42:19;4.47;;;2.13;;
19519;SDS011;9904;52.246;20.898;2023-04-30T09:44:47;7.20;;;2.10;;
19519;SDS011;9904;52.246;20.898;2023-04-30T09:47:17;8.03;;;2.40;;
19519;SDS011;9904;52.246;20.898;2023-04-30T09:49:48;7.43;;;2.23;;
19519;SDS011;9904;52.246;20.898;2023-04-30T09:52:18;6.23;;;2.20;;
19519;SDS011;9904;52.246;20.898;2023-04-30T09:54:45;10.50;;;2.13;;
19519;SDS011;9904;52.246;20.898;2023-04-30T09:57:12;4.67;;;2.20;;
19519;SDS011;9904;52.246;20.898;2023-04-30T09:59:44;7.00;;;2.30;;
19519;SDS011;9904;52.246;20.898;2023-04-30T10:02:14;6.93;;;2.13;;
19519;SDS011;9904;52.246;20.898;2023-04-30T10:04:43;5.27;;;1.70;;
19519;SDS011;9904;52.246;20.898;2023-04-30T10:07:18;6.93;;;2.53;;
19519;SDS011;9904;52.246;20.898;2023-04-30T10:09:58;13.53;;;3.00;;
19519;SDS011;9904;52.246;20.898;2023-04-30T10:12:31;11.63;;;2.50;;
19519;SDS011;9904;52.246;20.898;2023-04-30T10:15:27;7.63;;;2.10;;
19519;SDS011;9904;52.246;20.898;2023-04-30T10:18:01;6.33;;;2.00;;
19519;SDS011;9904;52.246;20.898;2023-04-30T10:20:29;4.50;;;1.60;;
19519;SDS011;9904;52.246;20.898;2023-04-30T10:22:57;7.90;;;2.07;;
19519;SDS011;9904;52.246;20.898;2023-04-30T10:25:24;10.00;;;1.97;;
19519;SDS011;9904;52.246;20.898;2023-04-30T10:27:53;4.90;;;1.50;;
19519;SDS011;9904;52.246;20.898;2023-04-30T10:30:20;7.20;;;1.60;;
19519;SDS011;9904;52.246;20.898;2023-04-30T10:32:50;8.47;;;1.87;;
19519;SDS011;9904;52.246;20.898;2023-04-30T10:35:25;3.80;;;1.60;;
19519;SDS011;9904;52.246;20.898;2023-04-30T10:37:56;6.83;;;1.50;;
19519;SDS011;9904;52.246;20.898;2023-04-30T10:40:26;10.13;;;1.67;;
19519;SDS011;9904;52.246;20.898;2023-04-30T10:42:53;4.27;;;1.43;;
19519;SDS011;9904;52.246;20.898;2023-04-30T10:45:36;2.80;;;1.43;;
19519;SDS011;9904;52.246;20.898;2023-04-30T10:48:04;4.07;;;1.20;;
19519;SDS011;9904;52.246;20.898;2023-04-30T10:50:31;4.67;;;1.30;;
19519;SDS011;9904;52.246;20.898;2023-04-30T10:53:01;3.27;;;1.23;;
19519;SDS011;9904;52.246;20.898;2023-04-30T10:55:29;8.23;;;1.70;;
19519;SDS011;9904;52.246;20.898;2023-04-30T10:57:56;6.17;;;1.60;;
19519;SDS011;9904;52.246;20.898;2023-04-30T11:00:27;5.37;;;1.57;;
19519;SDS011;9904;52.246;20.898;2023-04-30T11:02:55;6.90;;;2.17;;
19519;SDS011;9904;52.246;20.898;2023-04-30T11:05:36;7.07;;;1.60;;
19519;SDS011;9904;52.246;20.898;2023-04-30T11:08:03;6.07;;;1.40;;
19519;SDS011;9904;52.246;20.898;2023-04-30T11:10:32;3.37;;;1.43;;
19519;SDS011;9904;52.246;20.898;2023-04-30T11:13:06;9.73;;;1.60;;
19519;SDS011;9904;52.246;20.898;2023-04-30T11:15:41;6.17;;;1.60;;
19519;SDS011;9904;52.246;20.898;2023-04-30T11:18:10;4.77;;;1.40;;
19519;SDS011;9904;52.246;20.898;2023-04-30T11:20:39;8.50;;;1.90;;
19519;SDS011;9904;52.246;20.898;2023-04-30T11:23:15;5.33;;;1.63;;
19519;SDS011;9904;52.246;20.898;2023-04-30T11:26:02;6.27;;;1.13;;
19519;SDS011;9904;52.246;20.898;2023-04-30T11:28:31;5.57;;;1.43;;
19519;SDS011;9904;52.246;20.898;2023-04-30T11:31:00;5.17;;;1.40;;
19519;SDS011;9904;52.246;20.898;2023-04-30T11:33:28;3.67;;;1.67;;
19519;SDS011;9904;52.246;20.898;2023-04-30T11:35:56;4.40;;;1.50;;
19519;SDS011;9904;52.246;20.898;2023-04-30T11:38:28;3.37;;;1.57;;
19519;SDS011;9904;52.246;20.898;2023-04-30T11:40:55;3.37;;;1.33;;
19519;SDS011;9904;52.246;20.898;2023-04-30T11:43:26;5.33;;;1.70;;
19519;SDS011;9904;52.246;20.898;2023-04-30T11:48:46;3.67;;;1.33;;
19519;SDS011;9904;52.246;20.898;2023-04-30T11:51:20;7.23;;;1.50;;
19519;SDS011;9904;52.246;20.898;2023-04-30T11:53:50;5.57;;;1.60;;
19519;SDS011;9904;52.246;20.898;2023-04-30T11:56:17;4.13;;;1.30;;
19519;SDS011;9904;52.246;20.898;2023-04-30T11:58:47;5.43;;;1.70;;
19519;SDS011;9904;52.246;20.898;2023-04-30T12:01:14;5.93;;;1.50;;
19519;SDS011;9904;52.246;20.898;2023-04-30T12:03:48;4.37;;;1.40;;
19519;SDS011;9904;52.246;20.898;2023-04-30T12:08:53;4.03;;;1.50;;
19519;SDS011;9904;52.246;20.898;2023-04-30T12:11:24;4.67;;;1.77;;
19519;SDS011;9904;52.246;20.898;2023-04-30T12:13:52;5.87;;;1.70;;
19519;SDS011;9904;52.246;20.898;2023-04-30T12:16:20;6.87;;;1.97;;
19519;SDS011;9904;52.246;20.898;2023-04-30T12:18:46;5.10;;;1.40;;
19519;SDS011;9904;52.246;20.898;2023-04-30T12:21:15;4.53;;;1.23;;
19519;SDS011;9904;52.246;20.898;2023-04-30T12:23:42;10.33;;;1.73;;
19519;SDS011;9904;52.246;20.898;2023-04-30T12:26:10;5.40;;;1.63;;
19519;SDS011;9904;52.246;20.898;2023-04-30T12:28:36;7.03;;;2.00;;
19519;SDS011;9904;52.246;20.898;2023-04-30T12:31:03;3.37;;;1.30;;
19519;SDS011;9904;52.246;20.898;2023-04-30T12:33:31;5.97;;;1.40;;
19519;SDS011;9904;52.246;20.898;2023-04-30T12:35:57;4.27;;;1.37;;
19519;SDS011;9904;52.246;20.898;2023-04-30T12:38:24;6.03;;;1.67;;
19519;SDS011;9904;52.246;20.898;2023-04-30T12:40:51;3.30;;;1.20;;
19519;SDS011;9904;52.246;20.898;2023-04-30T12:43:17;6.73;;;1.80;;
19519;SDS011;9904;52.246;20.898;2023-04-30T12:45:48;5.80;;;1.50;;
19519;SDS011;9904;52.246;20.898;2023-04-30T12:48:18;3.60;;;1.37;;
19519;SDS011;9904;52.246;20.898;2023-04-30T12:50:58;6.97;;;1.57;;
19519;SDS011;9904;52.246;20.898;2023-04-30T12:53:28;3.77;;;1.60;;
19519;SDS011;9904;52.246;20.898;2023-04-30T12:56:08;7.33;;;1.43;;
19519;SDS011;9904;52.246;20.898;2023-04-30T12:58:41;2.73;;;1.37;;
19519;SDS011;9904;52.246;20.898;2023-04-30T13:01:15;3.87;;;1.50;;
19519;SDS011;9904;52.246;20.898;2023-04-30T13:03:42;9.17;;;1.60;;
19519;SDS011;9904;52.246;20.898;2023-04-30T13:06:09;7.73;;;1.77;;
19519;SDS011;9904;52.246;20.898;2023-04-30T13:08:36;6.43;;;1.50;;
19519;SDS011;9904;52.246;20.898;2023-04-30T13:11:21;6.33;;;1.80;;
19519;SDS011;9904;52.246;20.898;2023-04-30T13:13:52;3.20;;;1.30;;
19519;SDS011;9904;52.246;20.898;2023-04-30T13:16:21;6.67;;;1.53;;
19519;SDS011;9904;52.246;20.898;2023-04-30T13:18:48;6.80;;;1.33;;
19519;SDS011;9904;52.246;20.898;2023-04-30T13:21:14;3.77;;;1.53;;
19519;SDS011;9904;52.246;20.898;2023-04-30T13:23:41;4.43;;;1.27;;
19519;SDS011;9904;52.246;20.898;2023-04-30T13:26:19;3.93;;;1.30;;
19519;SDS011;9904;52.246;20.898;2023-04-30T13:28:46;7.23;;;1.80;;
19519;SDS011;9904;52.246;20.898;2023-04-30T13:31:13;5.90;;;1.60;;
19519;SDS011;9904;52.246;20.898;2023-04-30T13:33:39;4.63;;;1.40;;
19519;SDS011;9904;52.246;20.898;2023-04-30T13:36:06;2.90;;;1.33;;
19519;SDS011;9904;52.246;20.898;2023-04-30T13:38:33;2.80;;;1.37;;
19519;SDS011;9904;52.246;20.898;2023-04-30T13:40:59;4.80;;;1.73;;
19519;SDS011;9904;52.246;20.898;2023-04-30T13:43:26;3.40;;;1.50;;
19519;SDS011;9904;52.246;20.898;2023-04-30T13:45:53;6.80;;;1.50;;
19519;SDS011;9904;52.246;20.898;2023-04-30T13:48:20;5.23;;;1.80;;
19519;SDS011;9904;52.246;20.898;2023-04-30T13:50:47;6.57;;;1.93;;
19519;SDS011;9904;52.246;20.898;2023-04-30T13:53:13;6.17;;;1.50;;
19519;SDS011;9904;52.246;20.898;2023-04-30T13:55:40;3.03;;;1.27;;
19519;SDS011;9904;52.246;20.898;2023-04-30T13:58:07;6.00;;;1.53;;
19519;SDS011;9904;52.246;20.898;2023-04-30T14:00:33;4.83;;;1.67;;
19519;SDS011;9904;52.246;20.898;2023-04-30T14:03:00;6.10;;;1.30;;
19519;SDS011;9904;52.246;20.898;2023-04-30T14:05:27;8.97;;;1.90;;
19519;SDS011;9904;52.246;20.898;2023-04-30T14:07:53;5.20;;;1.63;;
19519;SDS011;9904;52.246;20.898;2023-04-30T14:10:20;5.20;;;1.27;;
19519;SDS011;9904;52.246;20.898;2023-04-30T14:12:46;4.03;;;1.43;;
19519;SDS011;9904;52.246;20.898;2023-04-30T14:15:14;1.93;;;1.00;;
19519;SDS011;9904;52.246;20.898;2023-04-30T14:17:40;3.90;;;1.20;;
19519;SDS011;9904;52.246;20.898;2023-04-30T14:20:07;4.07;;;1.00;;
19519;SDS011;9904;52.246;20.898;2023-04-30T14:22:34;4.90;;;1.37;;
19519;SDS011;9904;52.246;20.898;2023-04-30T14:25:03;5.33;;;1.57;;
19519;SDS011;9904;52.246;20.898;2023-04-30T14:27:30;5.03;;;2.13;;
19519;SDS011;9904;52.246;20.898;2023-04-30T14:29:57;5.13;;;1.50;;
19519;SDS011;9904;52.246;20.898;2023-04-30T14:32:24;3.27;;;1.27;;
19519;SDS011;9904;52.246;20.898;2023-04-30T14:34:51;4.00;;;1.30;;
19519;SDS011;9904;52.246;20.898;2023-04-30T14:37:18;6.33;;;1.20;;
19519;SDS011;9904;52.246;20.898;2023-04-30T14:39:45;5.83;;;1.43;;
19519;SDS011;9904;52.246;20.898;2023-04-30T14:42:11;4.10;;;0.90;;
19519;SDS011;9904;52.246;20.898;2023-04-30T14:44:38;9.77;;;1.80;;
19519;SDS011;9904;52.246;20.898;2023-04-30T14:47:05;3.60;;;1.50;;
19519;SDS011;9904;52.246;20.898;2023-04-30T14:49:32;3.47;;;1.37;;
19519;SDS011;9904;52.246;20.898;2023-04-30T14:51:58;5.50;;;1.07;;
19519;SDS011;9904;52.246;20.898;2023-04-30T14:54:25;9.00;;;1.33;;
19519;SDS011;9904;52.246;20.898;2023-04-30T14:56:52;4.47;;;1.53;;
19519;SDS011;9904;52.246;20.898;2023-04-30T14:59:18;5.33;;;1.30;;